Terminal Aerodrome Forecast
Issued by NWS

Home | Current Version | Previous Version | Text Only | Print | Product List | Glossary Off
Versions: 1 2 3 4 5 6 7 8 9 10 11 12 13 14 15 16 17

000
FTUS43 KBIS 221700
TAFDIK
TAF
KDIK 221735Z 2218/2318 14023G29KT P6SM SCT250
     FM230600 11020G26KT P6SM VCSH OVC035
     FM231400 12019G24KT P6SM OVC025=

USA.gov is the U.S. government's official web portal to all federal, state and local government web resources and services.